sensor_id;sensor_type;location;lat;lon;timestamp;P1;durP1;ratioP1;P2;durP2;ratioP2
64459;SDS011;50828;53.756;21.140;2023-07-31T00:01:47;10.40;;;4.10;;
64459;SDS011;50828;53.756;21.140;2023-07-31T00:06:55;6.90;;;4.30;;
64459;SDS011;50828;53.756;21.140;2023-07-31T00:12:03;8.20;;;3.90;;
64459;SDS011;50828;53.756;21.140;2023-07-31T00:17:12;7.50;;;4.30;;
64459;SDS011;50828;53.756;21.140;2023-07-31T00:22:19;7.30;;;3.60;;
64459;SDS011;50828;53.756;21.140;2023-07-31T00:27:27;7.20;;;4.30;;
64459;SDS011;50828;53.756;21.140;2023-07-31T00:32:34;6.60;;;3.50;;
64459;SDS011;50828;53.756;21.140;2023-07-31T00:37:42;6.90;;;3.50;;
64459;SDS011;50828;53.756;21.140;2023-07-31T00:42:50;7.80;;;3.50;;
64459;SDS011;50828;53.756;21.140;2023-07-31T00:47:57;11.80;;;4.00;;
64459;SDS011;50828;53.756;21.140;2023-07-31T00:53:06;10.40;;;3.50;;
64459;SDS011;50828;53.756;21.140;2023-07-31T00:58:13;8.80;;;3.50;;
64459;SDS011;50828;53.756;21.140;2023-07-31T01:03:21;9.70;;;3.80;;
64459;SDS011;50828;53.756;21.140;2023-07-31T01:08:32;10.90;;;4.10;;
64459;SDS011;50828;53.756;21.140;2023-07-31T01:13:47;6.50;;;3.50;;
64459;SDS011;50828;53.756;21.140;2023-07-31T01:18:55;9.30;;;4.40;;
64459;SDS011;50828;53.756;21.140;2023-07-31T01:24:13;6.00;;;4.00;;
64459;SDS011;50828;53.756;21.140;2023-07-31T01:29:32;4.50;;;3.20;;
64459;SDS011;50828;53.756;21.140;2023-07-31T01:34:43;6.10;;;4.00;;
64459;SDS011;50828;53.756;21.140;2023-07-31T01:39:52;6.50;;;3.80;;
64459;SDS011;50828;53.756;21.140;2023-07-31T01:44:59;6.00;;;3.60;;
64459;SDS011;50828;53.756;21.140;2023-07-31T01:50:08;5.40;;;3.40;;
64459;SDS011;50828;53.756;21.140;2023-07-31T01:55:16;5.90;;;3.10;;
64459;SDS011;50828;53.756;21.140;2023-07-31T02:00:24;6.60;;;3.40;;
64459;SDS011;50828;53.756;21.140;2023-07-31T02:05:31;5.00;;;3.60;;
64459;SDS011;50828;53.756;21.140;2023-07-31T02:10:39;8.30;;;3.60;;
64459;SDS011;50828;53.756;21.140;2023-07-31T02:15:46;7.60;;;4.30;;
64459;SDS011;50828;53.756;21.140;2023-07-31T02:20:54;8.80;;;4.40;;
64459;SDS011;50828;53.756;21.140;2023-07-31T02:26:01;7.20;;;3.30;;
64459;SDS011;50828;53.756;21.140;2023-07-31T02:31:09;6.50;;;3.80;;
64459;SDS011;50828;53.756;21.140;2023-07-31T02:36:16;3.90;;;3.00;;
64459;SDS011;50828;53.756;21.140;2023-07-31T02:41:24;9.40;;;2.20;;
64459;SDS011;50828;53.756;21.140;2023-07-31T02:46:31;6.60;;;3.30;;
64459;SDS011;50828;53.756;21.140;2023-07-31T02:51:39;5.80;;;3.30;;
64459;SDS011;50828;53.756;21.140;2023-07-31T02:56:47;6.40;;;4.00;;
64459;SDS011;50828;53.756;21.140;2023-07-31T03:01:55;7.40;;;4.60;;
64459;SDS011;50828;53.756;21.140;2023-07-31T03:07:02;8.50;;;5.00;;
64459;SDS011;50828;53.756;21.140;2023-07-31T03:12:10;9.50;;;5.50;;
64459;SDS011;50828;53.756;21.140;2023-07-31T03:17:18;12.30;;;6.30;;
64459;SDS011;50828;53.756;21.140;2023-07-31T03:22:25;9.80;;;6.70;;
64459;SDS011;50828;53.756;21.140;2023-07-31T03:27:33;8.30;;;6.40;;
64459;SDS011;50828;53.756;21.140;2023-07-31T03:32:40;9.40;;;6.10;;
64459;SDS011;50828;53.756;21.140;2023-07-31T03:37:48;14.20;;;6.80;;
64459;SDS011;50828;53.756;21.140;2023-07-31T03:42:56;13.20;;;7.20;;
64459;SDS011;50828;53.756;21.140;2023-07-31T03:48:04;11.50;;;7.20;;
64459;SDS011;50828;53.756;21.140;2023-07-31T03:53:12;11.70;;;7.10;;
64459;SDS011;50828;53.756;21.140;2023-07-31T03:58:20;10.50;;;7.10;;
64459;SDS011;50828;53.756;21.140;2023-07-31T04:03:28;10.20;;;6.60;;
64459;SDS011;50828;53.756;21.140;2023-07-31T04:08:35;13.20;;;7.50;;
64459;SDS011;50828;53.756;21.140;2023-07-31T04:13:43;11.50;;;7.30;;
64459;SDS011;50828;53.756;21.140;2023-07-31T04:18:51;10.50;;;7.20;;
64459;SDS011;50828;53.756;21.140;2023-07-31T04:23:58;13.60;;;7.40;;
64459;SDS011;50828;53.756;21.140;2023-07-31T04:29:05;10.80;;;6.90;;
64459;SDS011;50828;53.756;21.140;2023-07-31T04:34:13;9.90;;;6.90;;
64459;SDS011;50828;53.756;21.140;2023-07-31T04:39:21;11.50;;;7.40;;
64459;SDS011;50828;53.756;21.140;2023-07-31T04:44:28;12.00;;;8.40;;
64459;SDS011;50828;53.756;21.140;2023-07-31T04:49:36;13.90;;;8.30;;
64459;SDS011;50828;53.756;21.140;2023-07-31T04:54:44;12.50;;;7.30;;
64459;SDS011;50828;53.756;21.140;2023-07-31T04:59:53;10.60;;;7.80;;
64459;SDS011;50828;53.756;21.140;2023-07-31T05:05:01;14.10;;;8.60;;
64459;SDS011;50828;53.756;21.140;2023-07-31T05:10:09;14.70;;;8.30;;
64459;SDS011;50828;53.756;21.140;2023-07-31T05:15:17;11.10;;;7.70;;
64459;SDS011;50828;53.756;21.140;2023-07-31T05:20:25;12.50;;;7.40;;
64459;SDS011;50828;53.756;21.140;2023-07-31T05:25:35;14.70;;;7.70;;
64459;SDS011;50828;53.756;21.140;2023-07-31T05:30:44;11.50;;;7.50;;
64459;SDS011;50828;53.756;21.140;2023-07-31T05:35:52;13.30;;;7.30;;
64459;SDS011;50828;53.756;21.140;2023-07-31T05:41:00;10.00;;;6.50;;
64459;SDS011;50828;53.756;21.140;2023-07-31T05:46:09;13.60;;;6.90;;
64459;SDS011;50828;53.756;21.140;2023-07-31T05:51:17;12.30;;;7.30;;
64459;SDS011;50828;53.756;21.140;2023-07-31T05:56:25;13.70;;;6.60;;
64459;SDS011;50828;53.756;21.140;2023-07-31T06:01:33;12.60;;;6.60;;
64459;SDS011;50828;53.756;21.140;2023-07-31T06:06:41;9.80;;;6.40;;
64459;SDS011;50828;53.756;21.140;2023-07-31T06:11:49;9.00;;;5.80;;
64459;SDS011;50828;53.756;21.140;2023-07-31T06:16:56;8.70;;;6.40;;
64459;SDS011;50828;53.756;21.140;2023-07-31T06:22:05;10.90;;;6.90;;
64459;SDS011;50828;53.756;21.140;2023-07-31T06:27:13;15.20;;;7.00;;
64459;SDS011;50828;53.756;21.140;2023-07-31T06:32:22;9.40;;;6.90;;
64459;SDS011;50828;53.756;21.140;2023-07-31T06:37:31;9.80;;;6.90;;
64459;SDS011;50828;53.756;21.140;2023-07-31T06:42:40;8.30;;;6.30;;
64459;SDS011;50828;53.756;21.140;2023-07-31T06:47:48;9.00;;;5.70;;
64459;SDS011;50828;53.756;21.140;2023-07-31T06:52:56;13.10;;;6.10;;
64459;SDS011;50828;53.756;21.140;2023-07-31T06:58:04;8.90;;;5.60;;
64459;SDS011;50828;53.756;21.140;2023-07-31T07:03:12;11.10;;;5.70;;
64459;SDS011;50828;53.756;21.140;2023-07-31T07:08:21;7.90;;;5.40;;
64459;SDS011;50828;53.756;21.140;2023-07-31T07:13:30;7.70;;;4.90;;
64459;SDS011;50828;53.756;21.140;2023-07-31T07:18:40;9.60;;;5.20;;
64459;SDS011;50828;53.756;21.140;2023-07-31T07:24:06;8.10;;;4.90;;
64459;SDS011;50828;53.756;21.140;2023-07-31T07:29:14;7.40;;;5.20;;
64459;SDS011;50828;53.756;21.140;2023-07-31T07:34:23;11.20;;;4.70;;
64459;SDS011;50828;53.756;21.140;2023-07-31T07:39:31;10.70;;;4.90;;
64459;SDS011;50828;53.756;21.140;2023-07-31T07:44:39;7.70;;;4.50;;
64459;SDS011;50828;53.756;21.140;2023-07-31T07:49:47;8.00;;;4.20;;
64459;SDS011;50828;53.756;21.140;2023-07-31T07:54:56;7.00;;;4.20;;
64459;SDS011;50828;53.756;21.140;2023-07-31T08:00:05;8.60;;;4.20;;
64459;SDS011;50828;53.756;21.140;2023-07-31T08:05:18;6.80;;;3.70;;
64459;SDS011;50828;53.756;21.140;2023-07-31T08:10:26;6.50;;;3.60;;
64459;SDS011;50828;53.756;21.140;2023-07-31T08:15:35;8.10;;;3.10;;
64459;SDS011;50828;53.756;21.140;2023-07-31T08:20:43;6.10;;;3.30;;
64459;SDS011;50828;53.756;21.140;2023-07-31T08:25:51;11.40;;;3.80;;
64459;SDS011;50828;53.756;21.140;2023-07-31T08:30:59;8.70;;;3.00;;
64459;SDS011;50828;53.756;21.140;2023-07-31T08:36:07;7.40;;;3.10;;
64459;SDS011;50828;53.756;21.140;2023-07-31T08:41:15;7.10;;;2.70;;
64459;SDS011;50828;53.756;21.140;2023-07-31T08:46:23;9.20;;;2.50;;
64459;SDS011;50828;53.756;21.140;2023-07-31T08:51:33;6.60;;;2.30;;
64459;SDS011;50828;53.756;21.140;2023-07-31T08:56:41;5.80;;;2.40;;
64459;SDS011;50828;53.756;21.140;2023-07-31T09:01:50;5.20;;;2.90;;
64459;SDS011;50828;53.756;21.140;2023-07-31T09:07:02;5.80;;;2.10;;
64459;SDS011;50828;53.756;21.140;2023-07-31T09:12:11;12.70;;;3.10;;
64459;SDS011;50828;53.756;21.140;2023-07-31T09:17:29;5.00;;;2.10;;
64459;SDS011;50828;53.756;21.140;2023-07-31T09:22:39;3.60;;;2.00;;
64459;SDS011;50828;53.756;21.140;2023-07-31T09:27:47;5.40;;;2.10;;
64459;SDS011;50828;53.756;21.140;2023-07-31T09:33:02;7.00;;;2.20;;
64459;SDS011;50828;53.756;21.140;2023-07-31T09:38:12;5.30;;;1.70;;
64459;SDS011;50828;53.756;21.140;2023-07-31T09:43:21;10.80;;;1.90;;
64459;SDS011;50828;53.756;21.140;2023-07-31T09:48:29;6.20;;;2.60;;
64459;SDS011;50828;53.756;21.140;2023-07-31T09:53:38;7.40;;;1.80;;
64459;SDS011;50828;53.756;21.140;2023-07-31T09:58:46;9.00;;;2.00;;
64459;SDS011;50828;53.756;21.140;2023-07-31T10:03:54;3.60;;;1.60;;
64459;SDS011;50828;53.756;21.140;2023-07-31T10:09:03;6.80;;;1.80;;
64459;SDS011;50828;53.756;21.140;2023-07-31T10:14:14;6.20;;;1.70;;
64459;SDS011;50828;53.756;21.140;2023-07-31T10:19:24;5.70;;;1.50;;
64459;SDS011;50828;53.756;21.140;2023-07-31T10:24:36;3.70;;;1.50;;
64459;SDS011;50828;53.756;21.140;2023-07-31T10:29:45;3.80;;;1.30;;
64459;SDS011;50828;53.756;21.140;2023-07-31T10:34:56;6.40;;;1.70;;
64459;SDS011;50828;53.756;21.140;2023-07-31T10:45:24;4.50;;;1.40;;
64459;SDS011;50828;53.756;21.140;2023-07-31T10:50:46;3.10;;;1.50;;
64459;SDS011;50828;53.756;21.140;2023-07-31T10:55:58;4.80;;;1.70;;
64459;SDS011;50828;53.756;21.140;2023-07-31T11:01:06;5.90;;;1.70;;
64459;SDS011;50828;53.756;21.140;2023-07-31T11:06:15;2.90;;;1.50;;
64459;SDS011;50828;53.756;21.140;2023-07-31T11:11:24;4.60;;;1.80;;
64459;SDS011;50828;53.756;21.140;2023-07-31T11:16:31;3.40;;;1.60;;
64459;SDS011;50828;53.756;21.140;2023-07-31T11:21:39;5.60;;;1.80;;
64459;SDS011;50828;53.756;21.140;2023-07-31T11:26:51;6.40;;;1.90;;
64459;SDS011;50828;53.756;21.140;2023-07-31T11:31:59;4.60;;;1.50;;
64459;SDS011;50828;53.756;21.140;2023-07-31T11:37:08;4.00;;;1.80;;
64459;SDS011;50828;53.756;21.140;2023-07-31T11:42:17;7.10;;;1.90;;
64459;SDS011;50828;53.756;21.140;2023-07-31T11:47:27;3.90;;;1.70;;
64459;SDS011;50828;53.756;21.140;2023-07-31T11:52:37;3.90;;;1.40;;
64459;SDS011;50828;53.756;21.140;2023-07-31T11:57:47;5.10;;;1.40;;
64459;SDS011;50828;53.756;21.140;2023-07-31T12:02:56;4.90;;;1.50;;
64459;SDS011;50828;53.756;21.140;2023-07-31T12:08:05;3.80;;;1.60;;
64459;SDS011;50828;53.756;21.140;2023-07-31T12:13:22;2.40;;;1.20;;
64459;SDS011;50828;53.756;21.140;2023-07-31T12:18:33;4.30;;;1.50;;
64459;SDS011;50828;53.756;21.140;2023-07-31T12:23:43;3.00;;;1.40;;
64459;SDS011;50828;53.756;21.140;2023-07-31T12:28:54;3.80;;;1.60;;
64459;SDS011;50828;53.756;21.140;2023-07-31T12:34:03;5.50;;;1.40;;
64459;SDS011;50828;53.756;21.140;2023-07-31T12:39:21;3.80;;;1.60;;
64459;SDS011;50828;53.756;21.140;2023-07-31T12:44:29;3.30;;;1.30;;
64459;SDS011;50828;53.756;21.140;2023-07-31T12:49:37;3.10;;;1.50;;
64459;SDS011;50828;53.756;21.140;2023-07-31T12:54:45;3.40;;;1.40;;
64459;SDS011;50828;53.756;21.140;2023-07-31T12:59:53;3.10;;;1.30;;
64459;SDS011;50828;53.756;21.140;2023-07-31T13:05:02;6.50;;;1.40;;
64459;SDS011;50828;53.756;21.140;2023-07-31T13:10:10;7.40;;;1.60;;
64459;SDS011;50828;53.756;21.140;2023-07-31T13:15:18;5.70;;;1.30;;
64459;SDS011;50828;53.756;21.140;2023-07-31T13:20:26;4.00;;;1.50;;
64459;SDS011;50828;53.756;21.140;2023-07-31T13:25:34;5.60;;;1.50;;
64459;SDS011;50828;53.756;21.140;2023-07-31T13:30:42;5.80;;;1.50;;
64459;SDS011;50828;53.756;21.140;2023-07-31T13:35:50;3.50;;;1.40;;
64459;SDS011;50828;53.756;21.140;2023-07-31T13:40:58;4.70;;;1.20;;
64459;SDS011;50828;53.756;21.140;2023-07-31T13:46:07;3.60;;;1.50;;
64459;SDS011;50828;53.756;21.140;2023-07-31T13:51:18;4.60;;;1.40;;
64459;SDS011;50828;53.756;21.140;2023-07-31T13:56:26;6.10;;;1.30;;
64459;SDS011;50828;53.756;21.140;2023-07-31T14:01:34;3.60;;;1.20;;
64459;SDS011;50828;53.756;21.140;2023-07-31T14:06:42;5.40;;;1.40;;
64459;SDS011;50828;53.756;21.140;2023-07-31T14:11:52;3.90;;;1.20;;
64459;SDS011;50828;53.756;21.140;2023-07-31T14:17:00;3.20;;;1.30;;
64459;SDS011;50828;53.756;21.140;2023-07-31T14:22:09;6.10;;;1.50;;
64459;SDS011;50828;53.756;21.140;2023-07-31T14:27:17;3.20;;;1.30;;
64459;SDS011;50828;53.756;21.140;2023-07-31T14:32:25;3.70;;;1.20;;
64459;SDS011;50828;53.756;21.140;2023-07-31T14:37:38;6.20;;;1.80;;
64459;SDS011;50828;53.756;21.140;2023-07-31T14:42:48;4.10;;;1.60;;
64459;SDS011;50828;53.756;21.140;2023-07-31T14:47:57;2.40;;;1.40;;
64459;SDS011;50828;53.756;21.140;2023-07-31T14:53:06;5.30;;;1.40;;
64459;SDS011;50828;53.756;21.140;2023-07-31T14:58:14;3.90;;;1.60;;
64459;SDS011;50828;53.756;21.140;2023-07-31T15:03:22;4.70;;;1.40;;
64459;SDS011;50828;53.756;21.140;2023-07-31T15:08:30;2.80;;;1.40;;
64459;SDS011;50828;53.756;21.140;2023-07-31T15:13:40;5.40;;;1.70;;
64459;SDS011;50828;53.756;21.140;2023-07-31T15:18:49;5.90;;;1.50;;
64459;SDS011;50828;53.756;21.140;2023-07-31T15:23:57;3.10;;;1.70;;
64459;SDS011;50828;53.756;21.140;2023-07-31T15:29:07;3.30;;;1.60;;
64459;SDS011;50828;53.756;21.140;2023-07-31T15:34:20;5.00;;;1.70;;
64459;SDS011;50828;53.756;21.140;2023-07-31T15:39:28;3.60;;;1.60;;
64459;SDS011;50828;53.756;21.140;2023-07-31T15:44:36;4.90;;;1.70;;
64459;SDS011;50828;53.756;21.140;2023-07-31T15:49:45;6.80;;;1.90;;
64459;SDS011;50828;53.756;21.140;2023-07-31T15:54:55;5.40;;;2.10;;
64459;SDS011;50828;53.756;21.140;2023-07-31T16:00:04;4.30;;;1.60;;
64459;SDS011;50828;53.756;21.140;2023-07-31T16:05:14;7.30;;;2.00;;
64459;SDS011;50828;53.756;21.140;2023-07-31T16:10:24;3.80;;;1.70;;
64459;SDS011;50828;53.756;21.140;2023-07-31T16:15:32;5.40;;;2.20;;
64459;SDS011;50828;53.756;21.140;2023-07-31T16:20:41;3.40;;;1.50;;
64459;SDS011;50828;53.756;21.140;2023-07-31T16:25:50;4.30;;;1.50;;
64459;SDS011;50828;53.756;21.140;2023-07-31T16:30:58;4.80;;;1.40;;
64459;SDS011;50828;53.756;21.140;2023-07-31T16:36:07;3.60;;;1.70;;
64459;SDS011;50828;53.756;21.140;2023-07-31T16:41:16;2.10;;;1.40;;
64459;SDS011;50828;53.756;21.140;2023-07-31T16:46:24;3.40;;;1.60;;
64459;SDS011;50828;53.756;21.140;2023-07-31T16:51:35;1.80;;;1.20;;
64459;SDS011;50828;53.756;21.140;2023-07-31T16:56:45;6.30;;;1.50;;
64459;SDS011;50828;53.756;21.140;2023-07-31T17:02:05;3.30;;;1.60;;
64459;SDS011;50828;53.756;21.140;2023-07-31T17:07:16;5.50;;;1.70;;
64459;SDS011;50828;53.756;21.140;2023-07-31T17:12:26;4.80;;;1.70;;
64459;SDS011;50828;53.756;21.140;2023-07-31T17:17:34;5.60;;;1.50;;
64459;SDS011;50828;53.756;21.140;2023-07-31T17:22:44;3.40;;;1.50;;
64459;SDS011;50828;53.756;21.140;2023-07-31T17:27:52;3.00;;;1.40;;
64459;SDS011;50828;53.756;21.140;2023-07-31T17:33:02;4.70;;;1.80;;
64459;SDS011;50828;53.756;21.140;2023-07-31T17:38:12;6.00;;;1.80;;
64459;SDS011;50828;53.756;21.140;2023-07-31T17:43:20;4.80;;;1.80;;
64459;SDS011;50828;53.756;21.140;2023-07-31T17:48:29;3.90;;;1.70;;
64459;SDS011;50828;53.756;21.140;2023-07-31T17:53:37;3.80;;;1.50;;
64459;SDS011;50828;53.756;21.140;2023-07-31T17:58:45;3.30;;;1.60;;
64459;SDS011;50828;53.756;21.140;2023-07-31T18:03:53;8.20;;;2.00;;
64459;SDS011;50828;53.756;21.140;2023-07-31T18:09:02;4.90;;;1.70;;
64459;SDS011;50828;53.756;21.140;2023-07-31T18:14:11;4.50;;;1.90;;
64459;SDS011;50828;53.756;21.140;2023-07-31T18:19:20;7.70;;;2.30;;
64459;SDS011;50828;53.756;21.140;2023-07-31T18:24:29;4.50;;;1.80;;
64459;SDS011;50828;53.756;21.140;2023-07-31T18:29:37;3.00;;;1.70;;
64459;SDS011;50828;53.756;21.140;2023-07-31T18:34:46;5.40;;;1.50;;
64459;SDS011;50828;53.756;21.140;2023-07-31T18:39:55;4.70;;;1.70;;
64459;SDS011;50828;53.756;21.140;2023-07-31T18:45:05;5.20;;;2.20;;
64459;SDS011;50828;53.756;21.140;2023-07-31T18:50:15;3.70;;;1.80;;
64459;SDS011;50828;53.756;21.140;2023-07-31T18:55:24;5.50;;;1.40;;
64459;SDS011;50828;53.756;21.140;2023-07-31T19:00:33;2.90;;;1.50;;
64459;SDS011;50828;53.756;21.140;2023-07-31T19:05:42;2.90;;;1.40;;
64459;SDS011;50828;53.756;21.140;2023-07-31T19:10:50;2.20;;;1.40;;
64459;SDS011;50828;53.756;21.140;2023-07-31T19:15:58;4.10;;;1.40;;
64459;SDS011;50828;53.756;21.140;2023-07-31T19:21:07;3.50;;;1.60;;
64459;SDS011;50828;53.756;21.140;2023-07-31T19:26:17;6.90;;;1.60;;
64459;SDS011;50828;53.756;21.140;2023-07-31T19:31:26;5.10;;;1.50;;
64459;SDS011;50828;53.756;21.140;2023-07-31T19:36:36;1.90;;;1.30;;
64459;SDS011;50828;53.756;21.140;2023-07-31T19:41:45;2.10;;;1.40;;
64459;SDS011;50828;53.756;21.140;2023-07-31T19:46:54;4.90;;;1.60;;
64459;SDS011;50828;53.756;21.140;2023-07-31T19:52:03;3.90;;;1.40;;
64459;SDS011;50828;53.756;21.140;2023-07-31T19:57:13;3.40;;;1.40;;
64459;SDS011;50828;53.756;21.140;2023-07-31T20:02:21;4.70;;;2.00;;
64459;SDS011;50828;53.756;21.140;2023-07-31T20:07:30;2.20;;;1.10;;
64459;SDS011;50828;53.756;21.140;2023-07-31T20:12:39;2.60;;;1.60;;
64459;SDS011;50828;53.756;21.140;2023-07-31T20:17:51;2.80;;;1.60;;
64459;SDS011;50828;53.756;21.140;2023-07-31T20:22:58;4.20;;;1.70;;
64459;SDS011;50828;53.756;21.140;2023-07-31T20:28:09;2.40;;;1.50;;
64459;SDS011;50828;53.756;21.140;2023-07-31T20:33:18;3.80;;;1.90;;
64459;SDS011;50828;53.756;21.140;2023-07-31T20:38:26;2.80;;;1.70;;
64459;SDS011;50828;53.756;21.140;2023-07-31T20:43:34;2.70;;;1.50;;
64459;SDS011;50828;53.756;21.140;2023-07-31T20:48:42;2.80;;;1.40;;
64459;SDS011;50828;53.756;21.140;2023-07-31T20:53:51;3.90;;;1.70;;
64459;SDS011;50828;53.756;21.140;2023-07-31T20:59:00;2.50;;;1.50;;
64459;SDS011;50828;53.756;21.140;2023-07-31T21:04:08;6.10;;;2.10;;
64459;SDS011;50828;53.756;21.140;2023-07-31T21:09:17;5.00;;;1.90;;
64459;SDS011;50828;53.756;21.140;2023-07-31T21:14:25;3.40;;;1.80;;
64459;SDS011;50828;53.756;21.140;2023-07-31T21:19:34;2.90;;;1.70;;
64459;SDS011;50828;53.756;21.140;2023-07-31T21:24:43;4.30;;;1.80;;
64459;SDS011;50828;53.756;21.140;2023-07-31T21:29:52;7.00;;;1.90;;
64459;SDS011;50828;53.756;21.140;2023-07-31T21:34:59;4.00;;;2.00;;
64459;SDS011;50828;53.756;21.140;2023-07-31T21:40:08;3.50;;;1.80;;
64459;SDS011;50828;53.756;21.140;2023-07-31T21:45:17;6.10;;;1.70;;
64459;SDS011;50828;53.756;21.140;2023-07-31T21:50:26;4.90;;;2.20;;
64459;SDS011;50828;53.756;21.140;2023-07-31T21:55:34;3.10;;;2.00;;
64459;SDS011;50828;53.756;21.140;2023-07-31T22:00:43;3.30;;;1.80;;
64459;SDS011;50828;53.756;21.140;2023-07-31T22:05:51;3.80;;;2.00;;
64459;SDS011;50828;53.756;21.140;2023-07-31T22:10:59;3.80;;;1.90;;
64459;SDS011;50828;53.756;21.140;2023-07-31T22:16:08;3.50;;;2.10;;
64459;SDS011;50828;53.756;21.140;2023-07-31T22:21:17;4.90;;;2.00;;
64459;SDS011;50828;53.756;21.140;2023-07-31T22:26:26;4.00;;;2.40;;
64459;SDS011;50828;53.756;21.140;2023-07-31T22:31:35;4.70;;;2.40;;
64459;SDS011;50828;53.756;21.140;2023-07-31T22:36:43;4.60;;;2.40;;
64459;SDS011;50828;53.756;21.140;2023-07-31T22:41:52;5.40;;;2.50;;
64459;SDS011;50828;53.756;21.140;2023-07-31T22:47:01;5.50;;;2.40;;
64459;SDS011;50828;53.756;21.140;2023-07-31T22:52:10;4.40;;;2.00;;
64459;SDS011;50828;53.756;21.140;2023-07-31T22:57:18;5.70;;;2.50;;
64459;SDS011;50828;53.756;21.140;2023-07-31T23:02:27;4.50;;;2.50;;
64459;SDS011;50828;53.756;21.140;2023-07-31T23:07:35;14.50;;;2.90;;
64459;SDS011;50828;53.756;21.140;2023-07-31T23:12:44;7.00;;;2.40;;
64459;SDS011;50828;53.756;21.140;2023-07-31T23:17:51;3.80;;;2.20;;
64459;SDS011;50828;53.756;21.140;2023-07-31T23:22:59;6.30;;;2.60;;
64459;SDS011;50828;53.756;21.140;2023-07-31T23:28:07;5.20;;;2.20;;
64459;SDS011;50828;53.756;21.140;2023-07-31T23:33:15;4.10;;;2.50;;
64459;SDS011;50828;53.756;21.140;2023-07-31T23:38:24;5.70;;;2.70;;
64459;SDS011;50828;53.756;21.140;2023-07-31T23:43:33;6.10;;;2.40;;
64459;SDS011;50828;53.756;21.140;2023-07-31T23:48:41;4.90;;;2.50;;
64459;SDS011;50828;53.756;21.140;2023-07-31T23:53:49;6.40;;;2.70;;
64459;SDS011;50828;53.756;21.140;2023-07-31T23:58:58;4.90;;;2.70;;
